Time,TemperatureF,DewpointF,PressureIn,WindDirection,WindDirectionDegrees,WindSpeedMPH,WindSpeedGustMPH,Humidity,HourlyPrecipIn,Conditions,Clouds,dailyrainin,SoftwareType,DateUTC
2015-07-07 00:03:00,62.0,57.0,30.00,West,280,9.0,16.0,83,-99.99,,,-99.99,,2015-07-07 07:03:00,
2015-07-07 00:12:00,62.0,57.0,30.00,West,280,9.0,16.0,83,-99.99,,,-99.99,,2015-07-07 07:12:00,
2015-07-07 00:20:00,61.0,56.0,30.02,WNW,300,7.0,15.0,83,-99.99,,,-99.99,,2015-07-07 07:20:00,
2015-07-07 01:12:00,61.0,56.0,30.02,WNW,300,7.0,15.0,83,-99.99,,,-99.99,,2015-07-07 08:12:00,
2015-07-07 01:20:00,60.0,56.0,30.03,WNW,300,6.0,13.0,86,-99.99,,,-99.99,,2015-07-07 08:20:00,
2015-07-07 02:03:00,60.0,56.0,30.03,WNW,300,6.0,13.0,86,-99.99,,,-99.99,,2015-07-07 09:03:00,
2015-07-07 02:13:00,60.0,56.0,30.03,WNW,300,6.0,13.0,86,-99.99,,,-99.99,,2015-07-07 09:13:00,
2015-07-07 02:20:00,60.0,55.0,30.03,West,260,5.0,9.0,83,-99.99,,,-99.99,,2015-07-07 09:20:00,
2015-07-07 03:03:00,60.0,55.0,30.03,West,260,5.0,9.0,83,-99.99,,,-99.99,,2015-07-07 10:03:00,
2015-07-07 03:13:00,60.0,55.0,30.03,West,260,5.0,9.0,83,-99.99,,,-99.99,,2015-07-07 10:13:00,
2015-07-07 03:20:00,59.0,55.0,30.04,West,280,3.0,7.0,86,-99.99,,,-99.99,,2015-07-07 10:20:00,
2015-07-07 04:04:00,59.0,55.0,30.04,West,280,3.0,7.0,86,-99.99,,,-99.99,,2015-07-07 11:04:00,
2015-07-07 04:13:00,59.0,55.0,30.04,West,280,3.0,7.0,86,-99.99,,,-99.99,,2015-07-07 11:13:00,
2015-07-07 04:20:00,60.0,56.0,30.04,West,275,3.0,5.0,86,-99.99,,,-99.99,,2015-07-07 11:20:00,
2015-07-07 05:03:00,60.0,56.0,30.04,West,275,3.0,5.0,86,-99.99,,,-99.99,,2015-07-07 12:03:00,
2015-07-07 05:13:00,60.0,56.0,30.04,West,275,3.0,5.0,86,-99.99,,,-99.99,,2015-07-07 12:13:00,
2015-07-07 05:20:00,59.0,56.0,30.04,WNW,290,3.0,6.0,89,-99.99,,,-99.99,,2015-07-07 12:20:00,
2015-07-07 06:03:00,59.0,56.0,30.04,WNW,290,3.0,6.0,89,-99.99,,,-99.99,,2015-07-07 13:03:00,
2015-07-07 06:13:00,59.0,56.0,30.04,WNW,290,3.0,6.0,89,-99.99,,,-99.99,,2015-07-07 13:13:00,
2015-07-07 06:20:00,60.0,56.0,30.06,WNW,300,3.0,5.0,86,-99.99,,,-99.99,,2015-07-07 13:20:00,
2015-07-07 07:03:00,60.0,56.0,30.06,WNW,300,3.0,5.0,86,-99.99,,,-99.99,,2015-07-07 14:03:00,
2015-07-07 07:12:00,60.0,56.0,30.06,WNW,300,3.0,5.0,86,-99.99,,,-99.99,,2015-07-07 14:12:00,
2015-07-07 07:20:00,62.0,56.0,30.06,WSW,255,3.0,7.0,80,-99.99,,,-99.99,,2015-07-07 14:20:00,
2015-07-07 08:03:00,62.0,56.0,30.06,WSW,255,3.0,7.0,80,-99.99,,,-99.99,,2015-07-07 15:03:00,
2015-07-07 08:12:00,62.0,56.0,30.06,WSW,255,3.0,7.0,80,-99.99,,,-99.99,,2015-07-07 15:12:00,
2015-07-07 08:20:00,63.0,56.0,30.05,WNW,290,5.0,7.0,77,-99.99,,,-99.99,,2015-07-07 15:20:00,
2015-07-07 09:03:00,63.0,56.0,30.05,WNW,290,5.0,7.0,77,-99.99,,,-99.99,,2015-07-07 16:03:00,
2015-07-07 09:13:00,63.0,56.0,30.05,WNW,290,5.0,7.0,77,-99.99,,,-99.99,,2015-07-07 16:13:00,
2015-07-07 09:20:00,65.0,57.0,30.05,West,275,3.0,7.0,75,-99.99,,,-99.99,,2015-07-07 16:20:00,
2015-07-07 10:04:00,65.0,57.0,30.05,West,275,3.0,7.0,75,-99.99,,,-99.99,,2015-07-07 17:04:00,
2015-07-07 10:13:00,65.0,57.0,30.05,West,275,3.0,7.0,75,-99.99,,,-99.99,,2015-07-07 17:13:00,
2015-07-07 10:20:00,68.0,57.0,30.02,NW,305,3.0,7.0,67,-99.99,,,-99.99,,2015-07-07 17:20:00,
2015-07-07 11:03:00,68.0,57.0,30.02,NW,305,3.0,7.0,67,-99.99,,,-99.99,,2015-07-07 18:03:00,
2015-07-07 11:13:00,68.0,57.0,30.02,NW,305,3.0,7.0,67,-99.99,,,-99.99,,2015-07-07 18:13:00,
2015-07-07 11:20:00,71.0,58.0,30.01,WNW,290,2.0,6.0,63,-99.99,,,-99.99,,2015-07-07 18:20:00,
2015-07-07 12:03:00,71.0,58.0,30.01,WNW,290,2.0,6.0,63,-99.99,,,-99.99,,2015-07-07 19:03:00,
2015-07-07 12:13:00,71.0,58.0,30.01,WNW,290,2.0,6.0,63,-99.99,,,-99.99,,2015-07-07 19:13:00,
2015-07-07 12:20:00,76.0,58.0,29.98,WNW,290,2.0,6.0,53,-99.99,,,-99.99,,2015-07-07 19:20:00,
2015-07-07 14:03:00,78.0,58.0,29.95,WSW,250,3.0,10.0,50,-99.99,,,-99.99,,2015-07-07 21:03:00,
2015-07-07 14:13:00,78.0,58.0,29.95,WSW,250,3.0,10.0,50,-99.99,,,-99.99,,2015-07-07 21:13:00,
2015-07-07 15:03:00,82.0,55.0,29.92,WNW,285,5.0,9.0,39,-99.99,,,-99.99,,2015-07-07 22:03:00,
2015-07-07 15:13:00,82.0,55.0,29.92,WNW,285,5.0,9.0,39,-99.99,,,-99.99,,2015-07-07 22:13:00,
2015-07-07 15:20:00,85.0,58.0,29.89,West,280,5.0,9.0,39,-99.99,,,-99.99,,2015-07-07 22:20:00,
2015-07-07 16:03:00,85.0,58.0,29.89,West,280,5.0,9.0,39,-99.99,,,-99.99,,2015-07-07 23:03:00,
2015-07-07 16:13:00,85.0,58.0,29.89,West,280,5.0,9.0,39,-99.99,,,-99.99,,2015-07-07 23:13:00,
2015-07-07 16:20:00,87.0,57.0,29.87,WNW,290,6.0,12.0,36,-99.99,,,-99.99,,2015-07-07 23:20:00,
2015-07-07 17:03:00,87.0,57.0,29.87,WNW,290,6.0,12.0,36,-99.99,,,-99.99,,2015-07-08 00:03:00,
2015-07-07 17:12:00,87.0,57.0,29.87,WNW,290,6.0,12.0,36,-99.99,,,-99.99,,2015-07-08 00:12:00,
2015-07-07 17:20:00,87.0,55.0,29.85,WNW,285,7.0,15.0,33,-99.99,,,-99.99,,2015-07-08 00:20:00,
2015-07-07 18:03:00,87.0,55.0,29.85,WNW,285,7.0,15.0,33,-99.99,,,-99.99,,2015-07-08 01:03:00,
2015-07-07 18:13:00,87.0,55.0,29.85,WNW,285,7.0,15.0,33,-99.99,,,-99.99,,2015-07-08 01:13:00,
2015-07-07 18:20:00,85.0,55.0,29.83,WNW,285,5.0,13.0,35,-99.99,,,-99.99,,2015-07-08 01:20:00,
2015-07-07 19:03:00,85.0,55.0,29.83,WNW,285,5.0,13.0,35,-99.99,,,-99.99,,2015-07-08 02:03:00,
2015-07-07 19:12:00,85.0,55.0,29.83,WNW,285,5.0,13.0,35,-99.99,,,-99.99,,2015-07-08 02:12:00,
2015-07-07 19:20:00,82.0,61.0,29.84,West,280,6.0,13.0,49,-99.99,,,-99.99,,2015-07-08 02:20:00,
2015-07-07 20:02:00,82.0,61.0,29.84,West,280,6.0,13.0,49,-99.99,,,-99.99,,2015-07-08 03:02:00,
2015-07-07 20:12:00,82.0,61.0,29.84,West,280,6.0,13.0,49,-99.99,,,-99.99,,2015-07-08 03:12:00,
2015-07-07 20:20:00,77.0,61.0,29.86,WNW,290,5.0,14.0,57,-99.99,,,-99.99,,2015-07-08 03:20:00,
2015-07-07 21:03:00,77.0,61.0,29.86,WNW,290,5.0,14.0,57,-99.99,,,-99.99,,2015-07-08 04:03:00,
2015-07-07 21:12:00,77.0,61.0,29.86,WNW,290,5.0,14.0,57,-99.99,,,-99.99,,2015-07-08 04:12:00,
2015-07-07 21:20:00,72.0,59.0,29.87,WNW,290,7.0,12.0,63,-99.99,,,-99.99,,2015-07-08 04:20:00,
2015-07-07 22:00:00,70.0,59.0,29.88,WNW,290,9.0,13.0,68,-99.99,,,-99.99,,2015-07-08 05:00:00,
2015-07-07 22:03:00,72.0,59.0,29.87,WNW,290,7.0,12.0,63,-99.99,,,-99.99,,2015-07-08 05:03:00,
2015-07-07 22:13:00,72.0,59.0,29.87,WNW,290,7.0,12.0,63,-99.99,,,-99.99,,2015-07-08 05:13:00,